createdAt,value
2016-04-27T00:00:43.825Z,995.19
2016-04-27T00:01:56.577Z,995.2
2016-04-27T00:03:09.521Z,995.18
2016-04-27T00:03:43.849Z,995.2
2016-04-27T00:04:43.868Z,995.21
2016-04-27T00:05:43.885Z,995.21
2016-04-27T00:06:47.263Z,995.22
2016-04-27T00:07:43.922Z,995.21
2016-04-27T00:08:50.191Z,995.21
2016-04-27T00:09:43.943Z,995.21
2016-04-27T00:10:43.961Z,995.24
2016-04-27T00:11:43.979Z,995.22
2016-04-27T00:12:43.998Z,995.21
2016-04-27T00:13:44.001Z,995.2
2016-04-27T00:14:44.019Z,995.28
2016-04-27T00:15:44.037Z,995.27
2016-04-27T00:16:44.055Z,995.26
2016-04-27T00:17:50.324Z,995.21
2016-04-27T00:18:44.077Z,995.26
2016-04-27T00:19:44.094Z,995.25
2016-04-27T00:20:56.848Z,995.26
2016-04-27T00:21:44.866Z,995.24
2016-04-27T00:22:44.134Z,995.22
2016-04-27T00:23:44.153Z,995.27
2016-04-27T00:24:45.577Z,995.29
2016-04-27T00:25:44.174Z,995.27
2016-04-27T00:26:44.191Z,995.28
2016-04-27T00:27:44.210Z,995.3
2016-04-27T00:28:44.229Z,995.32
2016-04-27T00:29:44.247Z,995.3
2016-04-27T00:30:44.265Z,995.34
2016-04-27T00:31:44.268Z,995.34
2016-04-27T00:32:44.286Z,995.34
2016-04-27T00:33:44.289Z,995.3
2016-04-27T00:34:44.323Z,995.34
2016-04-27T00:35:44.326Z,995.33
2016-04-27T00:36:44.343Z,995.38
2016-04-27T00:37:57.081Z,995.37
2016-04-27T00:38:44.365Z,995.43
2016-04-27T00:39:44.383Z,995.42
2016-04-27T00:40:57.139Z,995.48
2016-04-27T00:41:44.588Z,995.46
2016-04-27T00:42:44.416Z,995.47
2016-04-27T00:43:44.424Z,995.48
2016-04-27T00:44:45.926Z,995.62
2016-04-27T00:45:44.465Z,995.59
2016-04-27T00:46:44.484Z,995.62
2016-04-27T00:47:44.486Z,995.62
2016-04-27T00:48:45.114Z,995.67
2016-04-27T00:50:03.726Z,995.68
2016-04-27T00:50:44.541Z,995.67
2016-04-27T00:51:44.543Z,995.68
2016-04-27T00:52:44.562Z,995.73
2016-04-27T00:55:10.269Z,995.73
2016-04-27T00:55:44.601Z,995.75
2016-04-27T00:56:44.620Z,995.72
2016-04-27T00:57:45.247Z,995.74
2016-04-27T00:58:57.374Z,995.78
2016-04-27T00:59:44.659Z,995.81
2016-04-27T01:00:44.692Z,995.79
2016-04-27T01:01:45.305Z,995.82
2016-04-27T01:02:44.714Z,995.83
2016-04-27T01:03:54.872Z,995.82
2016-04-27T01:04:54.891Z,995.87
2016-04-27T01:05:54.893Z,995.89
2016-04-27T01:06:54.944Z,995.9
2016-04-27T01:07:54.946Z,995.91
2016-04-27T01:08:54.948Z,995.94
2016-04-27T01:09:54.983Z,995.95
2016-04-27T01:11:07.719Z,995.95
2016-04-27T01:11:54.987Z,995.98
2016-04-27T01:12:55.006Z,995.97
2016-04-27T01:13:55.024Z,996
2016-04-27T01:14:55.043Z,996.01
2016-04-27T01:16:14.251Z,996.03
2016-04-27T01:17:01.329Z,996.05
2016-04-27T01:17:55.067Z,996.07
2016-04-27T01:18:55.084Z,996.08
2016-04-27T01:19:55.103Z,996.08
2016-04-27T01:20:58.262Z,996.11
2016-04-27T01:21:55.139Z,996.13
2016-04-27T01:23:08.009Z,996.19
2016-04-27T01:23:55.152Z,996.18
2016-04-27T01:24:55.186Z,996.19
2016-04-27T01:25:55.189Z,996.18
2016-04-27T01:26:55.192Z,996.2
2016-04-27T01:27:55.210Z,996.23
2016-04-27T01:28:55.244Z,996.28
2016-04-27T01:29:55.247Z,996.3
2016-04-27T01:30:55.266Z,996.26
2016-04-27T01:31:55.268Z,996.31
2016-04-27T01:32:55.286Z,996.32
2016-04-27T01:33:55.305Z,996.36
2016-04-27T01:34:55.324Z,996.37
2016-04-27T01:35:55.326Z,996.4
2016-04-27T01:36:55.360Z,996.43
2016-04-27T01:37:55.363Z,996.43
2016-04-27T01:38:55.365Z,996.45
2016-04-27T01:39:55.383Z,996.47
2016-04-27T01:40:55.401Z,996.46
2016-04-27T01:42:01.685Z,996.53
2016-04-27T01:42:55.407Z,996.54
2016-04-27T01:43:55.440Z,996.56
2016-04-27T01:44:55.443Z,996.61
2016-04-27T01:45:55.509Z,996.6
2016-04-27T01:46:55.481Z,996.65
2016-04-27T01:48:08.264Z,996.66
2016-04-27T01:48:55.501Z,996.7
2016-04-27T01:50:14.727Z,996.74
2016-04-27T01:50:55.539Z,996.71
2016-04-27T01:51:55.541Z,996.74
2016-04-27T01:52:55.560Z,996.78
2016-04-27T01:53:55.563Z,996.77
2016-04-27T01:54:55.581Z,996.79
2016-04-27T01:56:08.333Z,996.73
2016-04-27T01:56:56.212Z,996.8
2016-04-27T01:57:55.620Z,996.82
2016-04-27T01:58:55.639Z,996.8
2016-04-27T01:59:55.641Z,996.87
2016-04-27T02:00:55.659Z,996.86
2016-04-27T02:01:55.678Z,996.92
2016-04-27T02:02:55.696Z,996.93
2016-04-27T02:04:21.389Z,996.97
2016-04-27T02:05:05.311Z,996.96
2016-04-27T02:06:05.579Z,997
2016-04-27T02:07:05.926Z,997.03
2016-04-27T02:08:05.350Z,997.06
2016-04-27T02:09:05.337Z,997.04
2016-04-27T02:10:11.637Z,997.09
2016-04-27T02:11:05.375Z,997.07
2016-04-27T02:12:05.392Z,997.09
2016-04-27T02:13:05.410Z,997.12
2016-04-27T02:14:06.835Z,997.17
2016-04-27T02:15:05.432Z,997.1
2016-04-27T02:16:05.449Z,997.16
2016-04-27T02:17:05.452Z,997.2
2016-04-27T02:18:05.471Z,997.19
2016-04-27T02:19:05.474Z,997.21
2016-04-27T02:20:05.585Z,997.24
2016-04-27T02:21:07.151Z,997.26
2016-04-27T02:22:06.341Z,997.2
2016-04-27T02:23:05.532Z,997.24
2016-04-27T02:24:05.596Z,997.29
2016-04-27T02:25:06.974Z,997.29
2016-04-27T02:26:24.793Z,997.33
2016-04-27T02:27:05.590Z,997.33
2016-04-27T02:28:05.591Z,997.38
2016-04-27T02:29:05.609Z,997.35
2016-04-27T02:30:05.629Z,997.35
2016-04-27T02:31:15.180Z,997.38
2016-04-27T02:32:15.183Z,997.38
2016-04-27T02:33:15.217Z,997.43
2016-04-27T02:34:15.204Z,997.38
2016-04-27T02:35:15.238Z,997.4
2016-04-27T02:36:15.242Z,997.41
2016-04-27T02:37:15.930Z,997.39
2016-04-27T02:38:27.997Z,997.48
2016-04-27T02:39:15.280Z,997.46
2016-04-27T02:40:15.298Z,997.46
2016-04-27T02:41:15.317Z,997.48
2016-04-27T02:42:41.015Z,997.51
2016-04-27T02:43:15.449Z,997.53
2016-04-27T02:44:15.431Z,997.54
2016-04-27T02:45:15.492Z,997.57
2016-04-27T02:47:43.513Z,997.61
2016-04-27T02:48:43.547Z,997.61
2016-04-27T02:49:43.565Z,997.62
2016-04-27T02:50:56.334Z,997.64
2016-04-27T02:51:43.648Z,997.66
2016-04-27T02:52:43.664Z,997.66
2016-04-27T02:53:43.783Z,997.69
2016-04-27T02:55:43.767Z,997.7
2016-04-27T02:56:43.743Z,997.66
2016-04-27T02:57:43.751Z,997.66
2016-04-27T02:58:43.771Z,997.66
2016-04-27T02:59:43.792Z,997.68
2016-04-27T03:00:43.796Z,997.68
2016-04-27T03:01:43.816Z,997.76
2016-04-27T03:02:43.837Z,997.75
2016-04-27T03:03:43.855Z,997.8
2016-04-27T03:04:56.594Z,997.8
2016-04-27T03:05:43.878Z,997.78
2016-04-27T03:07:03.085Z,997.8
2016-04-27T03:07:43.901Z,997.83
2016-04-27T03:08:43.997Z,997.8
2016-04-27T03:09:43.939Z,997.85
2016-04-27T03:10:43.941Z,997.85
2016-04-27T03:11:43.959Z,997.85
2016-04-27T03:12:43.979Z,997.86
2016-04-27T03:13:43.982Z,997.87
2016-04-27T03:14:44.000Z,997.81
2016-04-27T03:15:44.017Z,997.85
2016-04-27T03:16:56.770Z,997.83
2016-04-27T03:17:44.039Z,997.89
2016-04-27T03:19:09.728Z,997.89
2016-04-27T03:19:53.622Z,997.95
2016-04-27T03:20:53.625Z,997.93
2016-04-27T03:22:10.003Z,997.91
2016-04-27T03:23:10.005Z,997.93
2016-04-27T03:24:10.024Z,997.98
2016-04-27T03:25:10.042Z,997.99
2016-04-27T03:26:10.045Z,997.97
2016-04-27T03:27:10.063Z,997.98
2016-04-27T03:28:10.081Z,997.95
2016-04-27T03:29:10.100Z,997.98
2016-04-27T03:30:22.840Z,997.98
2016-04-27T03:31:10.121Z,997.94
2016-04-27T03:32:10.139Z,997.96
2016-04-27T03:33:10.251Z,997.99
2016-04-27T03:34:10.144Z,997.98
2016-04-27T03:35:10.163Z,997.99
2016-04-27T03:36:22.918Z,998
2016-04-27T03:37:10.199Z,998.04
2016-04-27T03:38:10.202Z,998.03
2016-04-27T03:39:10.236Z,998.02
2016-04-27T03:40:10.239Z,998.03
2016-04-27T03:41:13.320Z,998.05
2016-04-27T03:42:13.337Z,998.08
2016-04-27T03:43:13.356Z,998.07
2016-04-27T03:44:13.359Z,998.09
2016-04-27T03:45:13.377Z,998.09
2016-04-27T03:46:13.989Z,998.08
2016-04-27T03:47:39.089Z,998.08
2016-04-27T03:48:13.417Z,998.09
2016-04-27T03:50:28.674Z,998.09
2016-04-27T03:51:29.100Z,998.08
2016-04-27T03:52:28.695Z,998.14
2016-04-27T03:53:28.698Z,998.08
2016-04-27T03:54:41.451Z,998.13
2016-04-27T03:55:35.000Z,998.11
2016-04-27T03:56:54.425Z,998.12
2016-04-27T03:57:38.287Z,998.12
2016-04-27T03:58:38.305Z,998.11
2016-04-27T03:59:38.308Z,998.1
2016-04-27T04:00:38.326Z,998.11
2016-04-27T04:02:04.016Z,998.16
2016-04-27T04:02:38.363Z,998.18
2016-04-27T04:04:53.807Z,998.14
2016-04-27T04:05:53.825Z,998.17
2016-04-27T04:07:00.093Z,998.13
2016-04-27T04:07:53.846Z,998.19
2016-04-27T04:08:53.849Z,998.23
2016-04-27T04:09:53.883Z,998.22
2016-04-27T04:11:13.088Z,998.21
2016-04-27T04:12:09.780Z,998.26
2016-04-27T04:12:57.063Z,998.25
2016-04-27T04:13:57.065Z,998.27
2016-04-27T04:14:57.099Z,998.26
2016-04-27T04:15:57.118Z,998.29
2016-04-27T04:18:12.327Z,998.31
2016-04-27T04:19:38.004Z,998.3
2016-04-27T04:20:12.363Z,998.3
2016-04-27T04:22:29.453Z,998.35
2016-04-27T04:23:28.799Z,998.34
2016-04-27T04:24:30.911Z,998.33
2016-04-27T04:25:29.023Z,998.34
2016-04-27T04:26:28.855Z,998.34
2016-04-27T04:27:48.060Z,998.4
2016-04-27T04:28:28.875Z,998.38
2016-04-27T04:29:54.566Z,998.34
2016-04-27T04:30:39.069Z,998.35
2016-04-27T04:31:39.071Z,998.36
2016-04-27T04:32:39.090Z,998.38
2016-04-27T04:33:39.107Z,998.36
2016-04-27T04:34:45.391Z,998.35
2016-04-27T04:35:39.143Z,998.37
2016-04-27T04:36:52.084Z,998.36
2016-04-27T04:37:40.571Z,998.38
2016-04-27T04:39:04.856Z,998.33
2016-04-27T04:39:55.061Z,998.36
2016-04-27T04:40:48.798Z,998.37
2016-04-27T04:41:48.817Z,998.46
2016-04-27T04:42:48.834Z,998.47
2016-04-27T04:43:49.073Z,998.46
2016-04-27T04:45:01.590Z,998.47
2016-04-27T04:45:48.875Z,998.49
2016-04-27T04:47:08.080Z,998.44
2016-04-27T04:47:48.895Z,998.49
2016-04-27T04:49:08.117Z,998.5
2016-04-27T04:49:48.931Z,998.51
2016-04-27T04:50:48.950Z,998.49
2016-04-27T04:52:05.672Z,998.55
2016-04-27T04:52:52.939Z,998.55
2016-04-27T04:53:52.943Z,998.56
2016-04-27T04:54:52.977Z,998.58
2016-04-27T04:55:52.979Z,998.59
2016-04-27T04:56:52.997Z,998.62
2016-04-27T04:57:53.016Z,998.65
2016-04-27T04:58:53.018Z,998.61
2016-04-27T05:00:05.771Z,998.66
2016-04-27T05:00:53.056Z,998.65
2016-04-27T05:02:12.261Z,998.65
2016-04-27T05:02:56.061Z,998.67
2016-04-27T05:04:15.266Z,998.68
2016-04-27T05:05:24.879Z,998.67
2016-04-27T05:06:24.897Z,998.65
2016-04-27T05:06:59.227Z,998.69
2016-04-27T05:08:11.980Z,998.69
2016-04-27T05:08:59.264Z,998.7
2016-04-27T05:09:59.282Z,998.75
2016-04-27T05:10:59.285Z,998.73
2016-04-27T05:11:59.304Z,998.69
2016-04-27T05:13:14.494Z,998.79
2016-04-27T05:14:14.512Z,998.75
2016-04-27T05:15:14.515Z,998.75
2016-04-27T05:16:15.548Z,998.76
2016-04-27T05:17:14.536Z,998.77
2016-04-27T05:18:14.553Z,998.79
2016-04-27T05:19:14.572Z,998.78
2016-04-27T05:20:14.575Z,998.78
2016-04-27T05:21:14.609Z,998.82
2016-04-27T05:22:14.612Z,998.83
2016-04-27T05:23:14.630Z,998.86
2016-04-27T05:24:27.383Z,998.87
2016-04-27T05:25:14.650Z,998.8
2016-04-27T05:26:33.875Z,998.85
2016-04-27T05:27:27.422Z,998.82
2016-04-27T05:28:14.690Z,998.82
2016-04-27T05:29:40.383Z,998.86
2016-04-27T05:30:32.464Z,998.84
2016-04-27T05:31:32.483Z,998.87
2016-04-27T05:32:32.501Z,998.88
2016-04-27T05:33:32.519Z,998.87
2016-04-27T05:34:32.521Z,998.85
2016-04-27T05:35:45.274Z,998.86
2016-04-27T05:36:32.558Z,998.89
2016-04-27T05:37:58.249Z,998.85
2016-04-27T05:38:32.579Z,998.83
2016-04-27T05:39:32.598Z,998.84
2016-04-27T05:40:32.616Z,998.83
2016-04-27T05:41:32.618Z,998.87
2016-04-27T05:42:32.637Z,998.9
2016-04-27T05:43:45.389Z,998.89
2016-04-27T05:44:33.283Z,998.89
2016-04-27T05:45:32.707Z,998.94
2016-04-27T05:46:55.117Z,998.93
2016-04-27T05:47:35.917Z,998.99
2016-04-27T05:48:35.934Z,998.96
2016-04-27T05:49:35.953Z,999.01
2016-04-27T05:50:35.955Z,999.04
2016-04-27T05:51:35.973Z,999.02
2016-04-27T05:52:35.992Z,999.03
2016-04-27T05:53:35.995Z,999.06
2016-04-27T05:54:36.122Z,999.07
2016-04-27T05:55:36.031Z,999.08
2016-04-27T05:56:48.800Z,999.08
2016-04-27T05:57:36.069Z,999.11
2016-04-27T05:58:36.086Z,999.05
2016-04-27T05:59:36.105Z,999.06
2016-04-27T06:00:36.122Z,999.09
2016-04-27T06:01:36.141Z,999.08
2016-04-27T06:02:36.160Z,999.1
2016-04-27T06:03:36.178Z,999.16
2016-04-27T06:04:36.180Z,999.18
2016-04-27T06:05:36.246Z,999.14
2016-04-27T06:06:36.217Z,999.14
2016-04-27T06:07:36.673Z,999.17
2016-04-27T06:08:36.238Z,999.17
2016-04-27T06:09:36.256Z,999.19
2016-04-27T06:10:36.275Z,999.14
2016-04-27T06:11:36.293Z,999.18
2016-04-27T06:12:36.312Z,999.13
2016-04-27T06:13:36.330Z,999.11
2016-04-27T06:14:36.332Z,999.15
2016-04-27T06:15:55.554Z,999.12
2016-04-27T06:16:39.447Z,999.09
2016-04-27T06:17:58.668Z,999.11
2016-04-27T06:18:45.578Z,999.14
2016-04-27T06:19:45.595Z,999.12
2016-04-27T06:20:46.209Z,999.12
2016-04-27T06:21:45.633Z,999.15
2016-04-27T06:22:45.620Z,999.14
2016-04-27T06:23:45.748Z,999.14
2016-04-27T06:24:46.766Z,999.14
2016-04-27T06:25:58.425Z,999.15
2016-04-27T06:26:48.724Z,999.22
2016-04-27T06:27:45.711Z,999.19
2016-04-27T06:29:11.402Z,999.21
2016-04-27T06:29:45.732Z,999.19
2016-04-27T06:30:45.766Z,999.17
2016-04-27T06:31:45.785Z,999.18
2016-04-27T06:32:45.787Z,999.2
2016-04-27T06:33:45.805Z,999.19
2016-04-27T06:34:45.824Z,999.18
2016-04-27T06:35:45.841Z,999.19
2016-04-27T06:36:58.594Z,999.17
2016-04-27T06:37:46.471Z,999.22
2016-04-27T06:38:45.897Z,999.22
2016-04-27T06:40:01.727Z,999.21
2016-04-27T06:40:48.996Z,999.24
2016-04-27T06:41:49.030Z,999.21
2016-04-27T06:42:49.032Z,999.19
2016-04-27T06:43:49.035Z,999.2
2016-04-27T06:44:49.257Z,999.24
2016-04-27T06:45:49.072Z,999.19
2016-04-27T06:46:49.278Z,999.18
2016-04-27T06:47:49.109Z,999.19
2016-04-27T06:48:49.127Z,999.22
2016-04-27T06:49:49.146Z,999.22
2016-04-27T06:50:49.148Z,999.25
2016-04-27T06:51:49.541Z,999.27
2016-04-27T06:52:49.185Z,999.25
2016-04-27T06:54:01.937Z,999.28
2016-04-27T06:54:49.222Z,999.25
2016-04-27T06:56:16.552Z,999.32
2016-04-27T06:57:00.586Z,999.3
2016-04-27T06:58:00.589Z,999.3
2016-04-27T06:59:00.608Z,999.27
2016-04-27T07:00:00.625Z,999.32
2016-04-27T07:01:19.847Z,999.25
2016-04-27T07:02:13.397Z,999.3
2016-04-27T07:03:00.664Z,999.3
2016-04-27T07:04:19.886Z,999.27
2016-04-27T07:06:00.719Z,999.31
2016-04-27T07:07:00.738Z,999.32
2016-04-27T07:09:11.619Z,999.31
2016-04-27T07:10:11.574Z,999.29
2016-04-27T07:11:11.593Z,999.31
2016-04-27T07:12:11.611Z,999.3
2016-04-27T07:13:11.629Z,999.28
2016-04-27T07:14:11.648Z,999.33
2016-04-27T07:15:11.650Z,999.33
2016-04-27T07:16:11.668Z,999.32
2016-04-27T07:17:11.687Z,999.34
2016-04-27T07:18:11.705Z,999.39
2016-04-27T07:19:11.724Z,999.4
2016-04-27T07:20:11.742Z,999.38
2016-04-27T07:21:12.401Z,999.39
2016-04-27T07:22:11.778Z,999.39
2016-04-27T07:23:11.984Z,999.41
2016-04-27T07:24:11.955Z,999.46
2016-04-27T07:25:11.834Z,999.44
2016-04-27T07:26:11.898Z,999.47
2016-04-27T07:27:11.853Z,999.47
2016-04-27T07:28:24.607Z,999.47
2016-04-27T07:29:11.891Z,999.51
2016-04-27T07:30:11.908Z,999.43
2016-04-27T07:31:11.928Z,999.41
2016-04-27T07:32:24.680Z,999.38
2016-04-27T07:33:12.574Z,999.42
2016-04-27T07:34:11.983Z,999.44
2016-04-27T07:35:12.000Z,999.45
2016-04-27T07:36:12.003Z,999.45
2016-04-27T07:37:12.038Z,999.48
2016-04-27T07:38:12.040Z,999.46
2016-04-27T07:39:12.121Z,999.45
2016-04-27T07:40:24.827Z,999.46
2016-04-27T07:41:12.095Z,999.48
2016-04-27T07:42:12.113Z,999.51
2016-04-27T07:43:12.132Z,999.49
2016-04-27T07:44:12.150Z,999.5
2016-04-27T07:45:12.168Z,999.52
2016-04-27T07:46:12.186Z,999.49
2016-04-27T07:47:12.205Z,999.49
2016-04-27T07:48:18.490Z,999.49
2016-04-27T07:49:12.242Z,999.49
2016-04-27T07:50:12.260Z,999.54
2016-04-27T07:51:12.278Z,999.5
2016-04-27T07:52:12.921Z,999.53
2016-04-27T07:53:12.331Z,999.5
2016-04-27T07:54:12.317Z,999.49
2016-04-27T07:55:12.351Z,999.46
2016-04-27T07:56:12.370Z,999.47
2016-04-27T07:57:12.388Z,999.49
2016-04-27T07:58:12.391Z,999.49
2016-04-27T07:59:12.408Z,999.46
2016-04-27T08:00:12.442Z,999.5
2016-04-27T08:01:12.461Z,999.51
2016-04-27T08:02:12.464Z,999.53
2016-04-27T08:03:18.748Z,999.57
2016-04-27T08:04:12.500Z,999.55
2016-04-27T08:05:12.519Z,999.6
2016-04-27T08:06:31.771Z,999.59
2016-04-27T08:07:16.478Z,999.57
2016-04-27T08:08:15.652Z,999.68
2016-04-27T08:09:16.296Z,999.65
2016-04-27T08:10:15.688Z,999.67
2016-04-27T08:11:26.676Z,999.66
2016-04-27T08:12:26.694Z,999.66
2016-04-27T08:13:26.712Z,999.63
2016-04-27T08:14:26.730Z,999.62
2016-04-27T08:15:26.749Z,999.62
2016-04-27T08:17:36.320Z,999.64
2016-04-27T08:18:36.337Z,999.57
2016-04-27T08:19:36.341Z,999.62
2016-04-27T08:20:42.640Z,999.6
2016-04-27T08:21:38.174Z,999.61
2016-04-27T08:22:36.396Z,999.6
2016-04-27T08:23:36.414Z,999.62
2016-04-27T08:24:55.635Z,999.65
2016-04-27T08:25:42.716Z,999.63
2016-04-27T08:27:02.140Z,999.64
2016-04-27T08:27:36.484Z,999.64
2016-04-27T08:28:36.502Z,999.64
2016-04-27T08:29:36.521Z,999.72
2016-04-27T08:30:42.808Z,999.7
2016-04-27T08:31:36.558Z,999.67
2016-04-27T08:32:49.310Z,999.66
2016-04-27T08:33:55.829Z,999.7
2016-04-27T08:34:55.816Z,999.68
2016-04-27T08:35:36.628Z,999.8
2016-04-27T08:36:36.646Z,999.79
2016-04-27T08:37:36.681Z,999.83
2016-04-27T08:38:36.683Z,999.8
2016-04-27T08:39:36.702Z,999.88
2016-04-27T08:40:42.988Z,999.94
2016-04-27T08:41:37.504Z,999.92
2016-04-27T08:42:36.772Z,999.92
2016-04-27T08:43:36.774Z,999.93
2016-04-27T08:44:36.793Z,999.94
2016-04-27T08:45:36.810Z,999.96
2016-04-27T08:46:36.830Z,999.89
2016-04-27T08:47:36.848Z,999.88
2016-04-27T08:48:36.865Z,999.9
2016-04-27T08:49:36.901Z,999.88
2016-04-27T08:50:38.324Z,999.85
2016-04-27T08:51:43.205Z,999.91
2016-04-27T08:52:52.645Z,999.88
2016-04-27T08:53:36.973Z,999.86
2016-04-27T08:55:02.666Z,999.88
2016-04-27T08:55:46.623Z,999.93
2016-04-27T08:57:05.828Z,999.89
2016-04-27T08:57:46.658Z,999.95
2016-04-27T08:59:12.365Z,999.95
2016-04-27T09:00:09.023Z,1000
2016-04-27T09:01:15.292Z,1000.02
2016-04-27T09:02:09.044Z,999.92
2016-04-27T09:03:21.797Z,999.89
2016-04-27T09:04:09.691Z,999.86
2016-04-27T09:05:09.115Z,999.87
2016-04-27T09:06:09.133Z,999.91
2016-04-27T09:07:09.152Z,999.88
2016-04-27T09:08:09.170Z,999.94
2016-04-27T09:09:09.188Z,999.92
2016-04-27T09:10:09.207Z,999.95
2016-04-27T09:11:21.975Z,999.99
2016-04-27T09:12:09.853Z,999.99
2016-04-27T09:13:09.277Z,1000.04
2016-04-27T09:14:18.920Z,1000.03
2016-04-27T09:15:18.938Z,1000.03
2016-04-27T09:16:18.957Z,1000.05
2016-04-27T09:17:44.666Z,1000.12
2016-04-27T09:18:25.260Z,1000.11
2016-04-27T09:19:19.027Z,1000.1
2016-04-27T09:20:40.515Z,1000.12
2016-04-27T09:21:34.268Z,1000.12
2016-04-27T09:22:34.301Z,1000.09
2016-04-27T09:23:34.304Z,1000.05
2016-04-27T09:24:34.323Z,1000.07
2016-04-27T09:25:34.356Z,1000.08
2016-04-27T09:26:34.390Z,1000.08
2016-04-27T09:27:34.377Z,1000.13
2016-04-27T09:28:34.412Z,1000.15
2016-04-27T09:29:40.679Z,1000.12
2016-04-27T09:30:34.448Z,1000.16
2016-04-27T09:31:53.703Z,1000.14
2016-04-27T09:32:34.484Z,1000.09
2016-04-27T09:33:34.519Z,1000.12
2016-04-27T09:34:40.787Z,1000.18
2016-04-27T09:35:34.539Z,1000.19
2016-04-27T09:36:40.823Z,1000.22
2016-04-27T09:37:34.592Z,1000.26
2016-04-27T09:38:53.816Z,1000.27
2016-04-27T09:39:40.894Z,1000.18
2016-04-27T09:41:00.322Z,1000.18
2016-04-27T09:41:47.605Z,1000.21
2016-04-27T09:42:34.683Z,1000.22
2016-04-27T09:43:34.717Z,1000.25
2016-04-27T09:44:41.002Z,1000.24
2016-04-27T09:45:34.754Z,1000.29
2016-04-27T09:46:34.772Z,1000.29
2016-04-27T09:47:34.791Z,1000.28
2016-04-27T09:48:34.809Z,1000.26
2016-04-27T09:49:34.843Z,1000.21
2016-04-27T09:50:47.583Z,1000.24
2016-04-27T09:51:34.880Z,1000.19
2016-04-27T09:53:00.588Z,1000.19
2016-04-27T09:53:44.591Z,1000.13
2016-04-27T09:54:44.624Z,1000.13
2016-04-27T09:55:44.642Z,1000.19
2016-04-27T09:56:50.943Z,1000.23
2016-04-27T09:57:44.695Z,1000.24
2016-04-27T09:58:44.698Z,1000.27
2016-04-27T09:59:44.732Z,1000.3
2016-04-27T10:00:57.484Z,1000.34
2016-04-27T10:02:44.787Z,1000.34
2016-04-27T10:03:44.805Z,1000.32
2016-04-27T10:04:44.823Z,1000.35
2016-04-27T10:05:48.904Z,1000.32
2016-04-27T10:06:48.923Z,1000.36
2016-04-27T10:07:48.941Z,1000.31
2016-04-27T10:08:48.958Z,1000.3
2016-04-27T10:10:08.197Z,1000.29
2016-04-27T10:11:01.746Z,1000.33
2016-04-27T10:11:49.029Z,1000.33
2016-04-27T10:13:08.252Z,1000.33
2016-04-27T10:13:50.488Z,1000.33
2016-04-27T10:14:49.241Z,1000.35
2016-04-27T10:15:49.259Z,1000.32
2016-04-27T10:17:02.013Z,1000.33
2016-04-27T10:17:49.858Z,1000.33
2016-04-27T10:19:14.939Z,1000.39
2016-04-27T10:20:11.583Z,1000.35
2016-04-27T10:21:17.866Z,1000.36
2016-04-27T10:22:11.623Z,1000.31
2016-04-27T10:23:31.358Z,1000.36
2016-04-27T10:24:11.658Z,1000.38
2016-04-27T10:25:11.691Z,1000.38
2016-04-27T10:26:17.976Z,1000.39
2016-04-27T10:27:11.931Z,1000.33
2016-04-27T10:28:11.762Z,1000.35
2016-04-27T10:29:18.032Z,1000.32
2016-04-27T10:30:37.471Z,1000.32
2016-04-27T10:31:11.818Z,1000.36
2016-04-27T10:32:11.820Z,1000.37
2016-04-27T10:33:21.433Z,1000.36
2016-04-27T10:34:21.467Z,1000.35
2016-04-27T10:35:34.220Z,1000.37
2016-04-27T10:36:21.487Z,1000.37
2016-04-27T10:37:21.537Z,1000.38
2016-04-27T10:38:21.540Z,1000.37
2016-04-27T10:39:21.558Z,1000.37
2016-04-27T10:40:21.592Z,1000.36
2016-04-27T10:41:27.860Z,1000.4
2016-04-27T10:42:21.629Z,1000.37
2016-04-27T10:43:40.897Z,1000.38
2016-04-27T10:44:24.619Z,1000.44
2016-04-27T10:45:24.652Z,1000.44
2016-04-27T10:46:24.671Z,1000.45
2016-04-27T10:47:24.689Z,1000.42
2016-04-27T10:48:24.895Z,1000.37
2016-04-27T10:49:24.726Z,1000.33
2016-04-27T10:50:24.947Z,1000.32
2016-04-27T10:51:24.763Z,1000.35
2016-04-27T10:52:24.796Z,1000.34
2016-04-27T10:53:24.815Z,1000.43
2016-04-27T10:54:24.833Z,1000.45
2016-04-27T10:55:24.852Z,1000.49
2016-04-27T10:56:24.870Z,1000.55
2016-04-27T10:57:24.887Z,1000.52
2016-04-27T10:58:24.907Z,1000.47
2016-04-27T10:59:37.659Z,1000.46
2016-04-27T11:00:24.963Z,1000.46
2016-04-27T11:01:24.965Z,1000.48
2016-04-27T11:02:37.733Z,1000.48
2016-04-27T11:03:25.017Z,1000.48
2016-04-27T11:04:25.036Z,1000.48
2016-04-27T11:05:25.055Z,1000.56
2016-04-27T11:06:37.807Z,1000.57
2016-04-27T11:07:25.090Z,1000.61
2016-04-27T11:08:25.781Z,1000.65
2016-04-27T11:09:31.408Z,1000.83
2016-04-27T11:10:25.146Z,1000.91
2016-04-27T11:11:40.352Z,1000.96
2016-04-27T11:12:40.354Z,1000.95
2016-04-27T11:13:53.126Z,1001.05
2016-04-27T11:14:40.407Z,1000.98
2016-04-27T11:15:40.424Z,1000.98
2016-04-27T11:16:53.195Z,1000.94
2016-04-27T11:17:40.461Z,1001
2016-04-27T11:18:40.496Z,1001.02
2016-04-27T11:19:40.498Z,1001.05
2016-04-27T11:20:40.579Z,1000.98
2016-04-27T11:21:40.550Z,1001.04
2016-04-27T11:22:40.553Z,1001.02
2016-04-27T11:23:40.587Z,1001.05
2016-04-27T11:25:06.280Z,1001
2016-04-27T11:25:51.564Z,1001.06
2016-04-27T11:26:51.597Z,1001.05
2016-04-27T11:27:51.616Z,1001.09
2016-04-27T11:28:51.619Z,1001.13
2016-04-27T11:30:17.309Z,1001.1
2016-04-27T11:30:52.281Z,1001.1
2016-04-27T11:31:51.689Z,1001.09
2016-04-27T11:32:51.708Z,1001.09
2016-04-27T11:33:51.741Z,1001.06
2016-04-27T11:34:58.025Z,1001.08
2016-04-27T11:35:51.763Z,1001.07
2016-04-27T11:36:58.063Z,1001.09
2016-04-27T11:37:52.409Z,1001.09
2016-04-27T11:38:51.833Z,1001.09
2016-04-27T11:39:51.835Z,1001.16
2016-04-27T11:40:51.869Z,1001.11
2016-04-27T11:41:51.888Z,1001.13
2016-04-27T11:42:51.907Z,1001.17
2016-04-27T11:43:51.924Z,1001.09
2016-04-27T11:44:51.959Z,1001.04
2016-04-27T11:46:04.695Z,1001.08
2016-04-27T11:46:52.182Z,1001.05
2016-04-27T11:47:51.998Z,1000.97
2016-04-27T11:48:52.262Z,1001.01
2016-04-27T11:49:52.123Z,1001.11
2016-04-27T11:50:53.607Z,1001.11
2016-04-27T11:51:52.249Z,1001.15
2016-04-27T11:52:52.327Z,1001.21
2016-04-27T11:53:52.358Z,1001.16
2016-04-27T11:54:52.408Z,1001.22
2016-04-27T11:55:52.443Z,1001.17
2016-04-27T11:56:52.477Z,1001.2
2016-04-27T11:57:52.511Z,1001.21
2016-04-27T11:58:52.539Z,1001.66
2016-04-27T11:59:52.564Z,1001.64
2016-04-27T12:00:52.587Z,1001.69
2016-04-27T12:02:05.345Z,1001.62
2016-04-27T12:03:05.370Z,1001.58
2016-04-27T12:04:18.346Z,1001.57
2016-04-27T12:04:52.788Z,1001.56
2016-04-27T12:05:52.715Z,1001.57
2016-04-27T12:06:52.735Z,1001.51
2016-04-27T12:07:52.755Z,1001.5
2016-04-27T12:08:59.025Z,1001.41
2016-04-27T12:09:52.794Z,1001.4
2016-04-27T12:11:05.548Z,1001.36
2016-04-27T12:11:52.833Z,1001.43
2016-04-27T12:13:18.523Z,1001.47
2016-04-27T12:14:28.105Z,1001.45
2016-04-27T12:15:21.640Z,1001.5
2016-04-27T12:17:02.474Z,1001.55
2016-04-27T12:18:02.508Z,1001.55
2016-04-27T12:19:03.869Z,1001.55
2016-04-27T12:20:02.530Z,1001.53
2016-04-27T12:21:05.594Z,1001.58
2016-04-27T12:22:02.565Z,1001.59
2016-04-27T12:23:02.583Z,1001.59
2016-04-27T12:24:02.619Z,1001.59
2016-04-27T12:25:21.824Z,1001.67
2016-04-27T12:26:02.639Z,1001.68
2016-04-27T12:27:02.657Z,1001.68
2016-04-27T12:28:02.676Z,1001.7
2016-04-27T12:29:02.709Z,1001.73
2016-04-27T12:30:02.727Z,1001.71
2016-04-27T12:31:02.730Z,1001.76
2016-04-27T12:32:02.749Z,1001.75
2016-04-27T12:33:02.782Z,1001.76
2016-04-27T12:34:02.801Z,1001.8
2016-04-27T12:35:02.820Z,1001.82
2016-04-27T12:36:02.822Z,1001.81
2016-04-27T12:37:02.950Z,1001.78
2016-04-27T12:38:04.281Z,1001.73
2016-04-27T12:39:04.315Z,1001.71
2016-04-27T12:40:02.912Z,1001.71
2016-04-27T12:41:05.961Z,1001.68
2016-04-27T12:42:03.557Z,1001.78
2016-04-27T12:43:02.981Z,1001.8
2016-04-27T12:44:02.984Z,1001.8